sensor_id;sensor_type;location;lat;lon;timestamp;temperature;humidity
9776;DHT22;4927;52.472;13.108;2023-07-16T00:00:14;23.00;99.90
9776;DHT22;4927;52.472;13.108;2023-07-16T00:01:16;23.00;99.90
9776;DHT22;4927;52.472;13.108;2023-07-16T00:02:17;23.00;99.90
9776;DHT22;4927;52.472;13.108;2023-07-16T00:03:19;22.90;99.90
9776;DHT22;4927;52.472;13.108;2023-07-16T00:04:21;22.90;99.90
9776;DHT22;4927;52.472;13.108;2023-07-16T00:05:22;22.90;99.90
9776;DHT22;4927;52.472;13.108;2023-07-16T00:06:24;22.90;99.90
9776;DHT22;4927;52.472;13.108;2023-07-16T00:07:26;22.90;99.90
9776;DHT22;4927;52.472;13.108;2023-07-16T00:08:27;22.80;99.90
9776;DHT22;4927;52.472;13.108;2023-07-16T00:09:29;22.80;99.90
9776;DHT22;4927;52.472;13.108;2023-07-16T00:10:34;22.80;99.90
9776;DHT22;4927;52.472;13.108;2023-07-16T00:11:36;22.80;99.90
9776;DHT22;4927;52.472;13.108;2023-07-16T00:12:37;22.80;99.90
9776;DHT22;4927;52.472;13.108;2023-07-16T00:13:39;22.70;99.90
9776;DHT22;4927;52.472;13.108;2023-07-16T00:14:41;22.70;99.90
9776;DHT22;4927;52.472;13.108;2023-07-16T00:15:43;22.70;99.90
9776;DHT22;4927;52.472;13.108;2023-07-16T00:16:46;22.70;99.90
9776;DHT22;4927;52.472;13.108;2023-07-16T00:17:47;22.70;99.90
9776;DHT22;4927;52.472;13.108;2023-07-16T00:18:49;22.60;99.90
9776;DHT22;4927;52.472;13.108;2023-07-16T00:19:51;22.60;99.90
9776;DHT22;4927;52.472;13.108;2023-07-16T00:20:52;22.60;99.90
9776;DHT22;4927;52.472;13.108;2023-07-16T00:21:54;22.60;99.90
9776;DHT22;4927;52.472;13.108;2023-07-16T00:22:55;22.60;99.90
9776;DHT22;4927;52.472;13.108;2023-07-16T00:23:58;22.60;99.90
9776;DHT22;4927;52.472;13.108;2023-07-16T00:25:00;22.60;99.90
9776;DHT22;4927;52.472;13.108;2023-07-16T00:26:01;22.60;99.90
9776;DHT22;4927;52.472;13.108;2023-07-16T00:27:03;22.60;99.90
9776;DHT22;4927;52.472;13.108;2023-07-16T00:28:06;22.60;99.90
9776;DHT22;4927;52.472;13.108;2023-07-16T00:29:08;22.60;99.90
9776;DHT22;4927;52.472;13.108;2023-07-16T00:30:10;22.60;99.90
9776;DHT22;4927;52.472;13.108;2023-07-16T00:31:12;22.60;99.90
9776;DHT22;4927;52.472;13.108;2023-07-16T00:32:14;22.50;99.90
9776;DHT22;4927;52.472;13.108;2023-07-16T00:33:16;22.60;99.90
9776;DHT22;4927;52.472;13.108;2023-07-16T00:34:17;22.50;99.90
9776;DHT22;4927;52.472;13.108;2023-07-16T00:35:19;22.50;99.90
9776;DHT22;4927;52.472;13.108;2023-07-16T00:36:21;22.40;99.90
9776;DHT22;4927;52.472;13.108;2023-07-16T00:38:46;22.40;99.90
9776;DHT22;4927;52.472;13.108;2023-07-16T00:39:47;22.30;99.90
9776;DHT22;4927;52.472;13.108;2023-07-16T00:40:49;22.30;99.90
9776;DHT22;4927;52.472;13.108;2023-07-16T00:41:51;22.30;99.90
9776;DHT22;4927;52.472;13.108;2023-07-16T00:42:52;22.30;99.90
9776;DHT22;4927;52.472;13.108;2023-07-16T00:43:54;22.30;99.90
9776;DHT22;4927;52.472;13.108;2023-07-16T00:44:56;22.30;99.90
9776;DHT22;4927;52.472;13.108;2023-07-16T00:45:58;22.30;99.90
9776;DHT22;4927;52.472;13.108;2023-07-16T00:47:00;22.30;99.90
9776;DHT22;4927;52.472;13.108;2023-07-16T00:48:02;22.30;99.90
9776;DHT22;4927;52.472;13.108;2023-07-16T00:49:04;22.30;99.90
9776;DHT22;4927;52.472;13.108;2023-07-16T00:50:07;22.30;99.90
9776;DHT22;4927;52.472;13.108;2023-07-16T00:51:08;22.30;99.90
9776;DHT22;4927;52.472;13.108;2023-07-16T00:52:11;22.30;99.90
9776;DHT22;4927;52.472;13.108;2023-07-16T00:53:12;22.30;99.90
9776;DHT22;4927;52.472;13.108;2023-07-16T00:54:14;22.30;99.90
9776;DHT22;4927;52.472;13.108;2023-07-16T00:55:16;22.30;99.90
9776;DHT22;4927;52.472;13.108;2023-07-16T00:56:18;22.30;99.90
9776;DHT22;4927;52.472;13.108;2023-07-16T00:57:19;22.30;99.90
9776;DHT22;4927;52.472;13.108;2023-07-16T00:58:21;22.30;99.90
9776;DHT22;4927;52.472;13.108;2023-07-16T00:59:23;22.30;99.90
9776;DHT22;4927;52.472;13.108;2023-07-16T01:00:25;22.40;99.90
9776;DHT22;4927;52.472;13.108;2023-07-16T01:01:27;22.30;99.90
9776;DHT22;4927;52.472;13.108;2023-07-16T01:02:28;22.40;99.90
9776;DHT22;4927;52.472;13.108;2023-07-16T01:03:31;22.40;99.90
9776;DHT22;4927;52.472;13.108;2023-07-16T01:04:32;22.40;99.90
9776;DHT22;4927;52.472;13.108;2023-07-16T01:05:36;22.40;99.90
9776;DHT22;4927;52.472;13.108;2023-07-16T01:06:39;22.40;99.90
9776;DHT22;4927;52.472;13.108;2023-07-16T01:07:39;22.40;99.90
9776;DHT22;4927;52.472;13.108;2023-07-16T01:08:42;22.40;99.90
9776;DHT22;4927;52.472;13.108;2023-07-16T01:09:43;22.40;99.90
9776;DHT22;4927;52.472;13.108;2023-07-16T01:10:44;22.40;99.90
9776;DHT22;4927;52.472;13.108;2023-07-16T01:11:47;22.40;99.90
9776;DHT22;4927;52.472;13.108;2023-07-16T01:12:49;22.40;99.90
9776;DHT22;4927;52.472;13.108;2023-07-16T01:13:51;22.40;99.90
9776;DHT22;4927;52.472;13.108;2023-07-16T01:14:54;22.30;99.90
9776;DHT22;4927;52.472;13.108;2023-07-16T01:15:55;22.30;99.90
9776;DHT22;4927;52.472;13.108;2023-07-16T01:16:57;22.30;99.90
9776;DHT22;4927;52.472;13.108;2023-07-16T01:17:59;22.30;99.90
9776;DHT22;4927;52.472;13.108;2023-07-16T01:19:01;22.30;99.90
9776;DHT22;4927;52.472;13.108;2023-07-16T01:20:03;22.30;99.90
9776;DHT22;4927;52.472;13.108;2023-07-16T01:21:05;22.20;99.90
9776;DHT22;4927;52.472;13.108;2023-07-16T01:22:21;22.20;99.90
9776;DHT22;4927;52.472;13.108;2023-07-16T01:23:27;22.20;99.90
9776;DHT22;4927;52.472;13.108;2023-07-16T01:24:46;22.20;99.90
9776;DHT22;4927;52.472;13.108;2023-07-16T01:26:27;22.20;99.90
9776;DHT22;4927;52.472;13.108;2023-07-16T01:27:50;22.20;99.90
9776;DHT22;4927;52.472;13.108;2023-07-16T01:30:33;22.10;99.90
9776;DHT22;4927;52.472;13.108;2023-07-16T01:31:35;22.10;99.90
9776;DHT22;4927;52.472;13.108;2023-07-16T01:32:37;22.10;99.90
9776;DHT22;4927;52.472;13.108;2023-07-16T01:33:38;22.00;99.90
9776;DHT22;4927;52.472;13.108;2023-07-16T01:34:41;22.00;99.90
9776;DHT22;4927;52.472;13.108;2023-07-16T01:35:42;22.00;99.90
9776;DHT22;4927;52.472;13.108;2023-07-16T01:36:45;22.00;99.90
9776;DHT22;4927;52.472;13.108;2023-07-16T01:37:47;22.00;99.90
9776;DHT22;4927;52.472;13.108;2023-07-16T01:38:48;22.00;99.90
9776;DHT22;4927;52.472;13.108;2023-07-16T01:39:50;22.00;99.90
9776;DHT22;4927;52.472;13.108;2023-07-16T01:40:52;22.00;99.90
9776;DHT22;4927;52.472;13.108;2023-07-16T01:41:53;22.00;99.90
9776;DHT22;4927;52.472;13.108;2023-07-16T01:42:56;21.90;99.90
9776;DHT22;4927;52.472;13.108;2023-07-16T01:43:58;21.90;99.90
9776;DHT22;4927;52.472;13.108;2023-07-16T01:44:59;21.90;99.90
9776;DHT22;4927;52.472;13.108;2023-07-16T01:46:01;21.90;99.90
9776;DHT22;4927;52.472;13.108;2023-07-16T01:47:10;21.90;99.90
9776;DHT22;4927;52.472;13.108;2023-07-16T01:48:16;21.80;99.90
9776;DHT22;4927;52.472;13.108;2023-07-16T01:49:15;21.80;99.90
9776;DHT22;4927;52.472;13.108;2023-07-16T01:50:17;21.80;99.90
9776;DHT22;4927;52.472;13.108;2023-07-16T01:51:19;21.80;99.90
9776;DHT22;4927;52.472;13.108;2023-07-16T01:52:21;21.80;99.90
9776;DHT22;4927;52.472;13.108;2023-07-16T01:53:22;21.80;99.90
9776;DHT22;4927;52.472;13.108;2023-07-16T01:54:24;21.80;99.90
9776;DHT22;4927;52.472;13.108;2023-07-16T01:55:26;21.80;99.90
9776;DHT22;4927;52.472;13.108;2023-07-16T01:56:27;21.80;99.90
9776;DHT22;4927;52.472;13.108;2023-07-16T01:57:29;21.80;99.90
9776;DHT22;4927;52.472;13.108;2023-07-16T01:58:31;21.80;99.90
9776;DHT22;4927;52.472;13.108;2023-07-16T01:59:32;21.80;99.90
9776;DHT22;4927;52.472;13.108;2023-07-16T02:00:34;21.80;99.90
9776;DHT22;4927;52.472;13.108;2023-07-16T02:01:36;21.70;99.90
9776;DHT22;4927;52.472;13.108;2023-07-16T02:02:39;21.70;99.90
9776;DHT22;4927;52.472;13.108;2023-07-16T02:03:40;21.70;99.90
9776;DHT22;4927;52.472;13.108;2023-07-16T02:04:42;21.70;99.90
9776;DHT22;4927;52.472;13.108;2023-07-16T02:05:44;21.70;99.90
9776;DHT22;4927;52.472;13.108;2023-07-16T02:06:46;21.70;99.90
9776;DHT22;4927;52.472;13.108;2023-07-16T02:07:48;21.70;99.90
9776;DHT22;4927;52.472;13.108;2023-07-16T02:08:50;21.70;99.90
9776;DHT22;4927;52.472;13.108;2023-07-16T02:09:52;21.70;99.90
9776;DHT22;4927;52.472;13.108;2023-07-16T02:10:54;21.70;99.90
9776;DHT22;4927;52.472;13.108;2023-07-16T02:11:55;21.70;99.90
9776;DHT22;4927;52.472;13.108;2023-07-16T02:12:57;21.70;99.90
9776;DHT22;4927;52.472;13.108;2023-07-16T02:13:59;21.70;99.90
9776;DHT22;4927;52.472;13.108;2023-07-16T02:15:01;21.70;99.90
9776;DHT22;4927;52.472;13.108;2023-07-16T02:16:03;21.70;99.90
9776;DHT22;4927;52.472;13.108;2023-07-16T02:17:05;21.70;99.90
9776;DHT22;4927;52.472;13.108;2023-07-16T02:18:07;21.60;99.90
9776;DHT22;4927;52.472;13.108;2023-07-16T02:19:09;21.60;99.90
9776;DHT22;4927;52.472;13.108;2023-07-16T02:20:11;21.60;99.90
9776;DHT22;4927;52.472;13.108;2023-07-16T02:21:13;21.60;99.90
9776;DHT22;4927;52.472;13.108;2023-07-16T02:22:15;21.60;99.90
9776;DHT22;4927;52.472;13.108;2023-07-16T02:23:17;21.60;99.90
9776;DHT22;4927;52.472;13.108;2023-07-16T02:24:19;21.50;99.90
9776;DHT22;4927;52.472;13.108;2023-07-16T02:25:21;21.50;99.90
9776;DHT22;4927;52.472;13.108;2023-07-16T02:26:23;21.50;99.90
9776;DHT22;4927;52.472;13.108;2023-07-16T02:27:25;21.50;99.90
9776;DHT22;4927;52.472;13.108;2023-07-16T02:28:27;21.50;99.90
9776;DHT22;4927;52.472;13.108;2023-07-16T02:29:28;21.50;99.90
9776;DHT22;4927;52.472;13.108;2023-07-16T02:30:31;21.40;99.90
9776;DHT22;4927;52.472;13.108;2023-07-16T02:31:32;21.40;99.90
9776;DHT22;4927;52.472;13.108;2023-07-16T02:32:35;21.40;99.90
9776;DHT22;4927;52.472;13.108;2023-07-16T02:33:37;21.40;99.90
9776;DHT22;4927;52.472;13.108;2023-07-16T02:34:38;21.40;99.90
9776;DHT22;4927;52.472;13.108;2023-07-16T02:35:40;21.40;99.90
9776;DHT22;4927;52.472;13.108;2023-07-16T02:36:42;21.40;99.90
9776;DHT22;4927;52.472;13.108;2023-07-16T02:37:44;21.40;99.90
9776;DHT22;4927;52.472;13.108;2023-07-16T02:38:46;21.30;99.90
9776;DHT22;4927;52.472;13.108;2023-07-16T02:39:47;21.30;99.90
9776;DHT22;4927;52.472;13.108;2023-07-16T02:40:49;21.30;99.90
9776;DHT22;4927;52.472;13.108;2023-07-16T02:41:51;21.30;99.90
9776;DHT22;4927;52.472;13.108;2023-07-16T02:42:53;21.30;99.90
9776;DHT22;4927;52.472;13.108;2023-07-16T02:44:00;21.40;99.90
9776;DHT22;4927;52.472;13.108;2023-07-16T02:45:02;21.30;99.90
9776;DHT22;4927;52.472;13.108;2023-07-16T02:46:04;21.30;99.90
9776;DHT22;4927;52.472;13.108;2023-07-16T02:47:05;21.30;99.90
9776;DHT22;4927;52.472;13.108;2023-07-16T02:48:07;21.30;99.90
9776;DHT22;4927;52.472;13.108;2023-07-16T02:49:09;21.30;99.90
9776;DHT22;4927;52.472;13.108;2023-07-16T02:50:11;21.30;99.90
9776;DHT22;4927;52.472;13.108;2023-07-16T02:51:13;21.30;99.90
9776;DHT22;4927;52.472;13.108;2023-07-16T02:52:15;21.30;99.90
9776;DHT22;4927;52.472;13.108;2023-07-16T02:53:16;21.30;99.90
9776;DHT22;4927;52.472;13.108;2023-07-16T02:54:18;21.30;99.90
9776;DHT22;4927;52.472;13.108;2023-07-16T02:55:20;21.30;99.90
9776;DHT22;4927;52.472;13.108;2023-07-16T02:56:21;21.30;99.90
9776;DHT22;4927;52.472;13.108;2023-07-16T02:57:23;21.30;99.90
9776;DHT22;4927;52.472;13.108;2023-07-16T02:58:25;21.20;99.90
9776;DHT22;4927;52.472;13.108;2023-07-16T02:59:26;21.30;99.90
9776;DHT22;4927;52.472;13.108;2023-07-16T03:00:28;21.20;99.90
9776;DHT22;4927;52.472;13.108;2023-07-16T03:01:30;21.30;99.90
9776;DHT22;4927;52.472;13.108;2023-07-16T03:02:31;21.20;99.90
9776;DHT22;4927;52.472;13.108;2023-07-16T03:03:34;21.30;99.90
9776;DHT22;4927;52.472;13.108;2023-07-16T03:04:35;21.30;99.90
9776;DHT22;4927;52.472;13.108;2023-07-16T03:05:37;21.30;99.90
9776;DHT22;4927;52.472;13.108;2023-07-16T03:06:40;21.20;99.90
9776;DHT22;4927;52.472;13.108;2023-07-16T03:07:42;21.20;99.90
9776;DHT22;4927;52.472;13.108;2023-07-16T03:08:43;21.20;99.90
9776;DHT22;4927;52.472;13.108;2023-07-16T03:09:45;21.20;99.90
9776;DHT22;4927;52.472;13.108;2023-07-16T03:10:47;21.20;99.90
9776;DHT22;4927;52.472;13.108;2023-07-16T03:11:50;21.20;99.90
9776;DHT22;4927;52.472;13.108;2023-07-16T03:12:52;21.20;99.90
9776;DHT22;4927;52.472;13.108;2023-07-16T03:13:53;21.20;99.90
9776;DHT22;4927;52.472;13.108;2023-07-16T03:14:55;21.20;99.90
9776;DHT22;4927;52.472;13.108;2023-07-16T03:15:57;21.20;99.90
9776;DHT22;4927;52.472;13.108;2023-07-16T03:16:58;21.20;99.90
9776;DHT22;4927;52.472;13.108;2023-07-16T03:18:00;21.20;99.90
9776;DHT22;4927;52.472;13.108;2023-07-16T03:19:01;21.20;99.90
9776;DHT22;4927;52.472;13.108;2023-07-16T03:20:05;21.20;99.90
9776;DHT22;4927;52.472;13.108;2023-07-16T03:21:07;21.20;99.90
9776;DHT22;4927;52.472;13.108;2023-07-16T03:22:09;21.20;99.90
9776;DHT22;4927;52.472;13.108;2023-07-16T03:23:11;21.20;99.90
9776;DHT22;4927;52.472;13.108;2023-07-16T03:24:12;21.20;99.90
9776;DHT22;4927;52.472;13.108;2023-07-16T03:25:14;21.20;99.90
9776;DHT22;4927;52.472;13.108;2023-07-16T03:26:16;21.20;99.90
9776;DHT22;4927;52.472;13.108;2023-07-16T03:27:18;21.20;99.90
9776;DHT22;4927;52.472;13.108;2023-07-16T03:28:20;21.20;99.90
9776;DHT22;4927;52.472;13.108;2023-07-16T03:29:23;21.20;99.90
9776;DHT22;4927;52.472;13.108;2023-07-16T03:30:25;21.20;99.90
9776;DHT22;4927;52.472;13.108;2023-07-16T03:31:26;21.10;99.90
9776;DHT22;4927;52.472;13.108;2023-07-16T03:32:28;21.20;99.90
9776;DHT22;4927;52.472;13.108;2023-07-16T03:33:29;21.20;99.90
9776;DHT22;4927;52.472;13.108;2023-07-16T03:34:31;21.10;99.90
9776;DHT22;4927;52.472;13.108;2023-07-16T03:35:33;21.10;99.90
9776;DHT22;4927;52.472;13.108;2023-07-16T03:36:34;21.10;99.90
9776;DHT22;4927;52.472;13.108;2023-07-16T03:37:36;21.10;99.90
9776;DHT22;4927;52.472;13.108;2023-07-16T03:38:38;21.10;99.90
9776;DHT22;4927;52.472;13.108;2023-07-16T03:39:40;21.00;99.90
9776;DHT22;4927;52.472;13.108;2023-07-16T03:40:47;21.00;99.90
9776;DHT22;4927;52.472;13.108;2023-07-16T03:41:44;21.00;99.90
9776;DHT22;4927;52.472;13.108;2023-07-16T03:42:46;21.10;99.90
9776;DHT22;4927;52.472;13.108;2023-07-16T03:43:47;21.00;99.90
9776;DHT22;4927;52.472;13.108;2023-07-16T03:44:49;21.00;99.90
9776;DHT22;4927;52.472;13.108;2023-07-16T03:45:50;21.00;99.90
9776;DHT22;4927;52.472;13.108;2023-07-16T03:46:52;21.00;99.90
9776;DHT22;4927;52.472;13.108;2023-07-16T03:47:54;21.00;99.90
9776;DHT22;4927;52.472;13.108;2023-07-16T03:48:56;21.00;99.90
9776;DHT22;4927;52.472;13.108;2023-07-16T03:49:57;21.00;99.90
9776;DHT22;4927;52.472;13.108;2023-07-16T03:50:59;21.00;99.90
9776;DHT22;4927;52.472;13.108;2023-07-16T03:52:01;20.90;99.90
9776;DHT22;4927;52.472;13.108;2023-07-16T03:53:02;21.00;99.90
9776;DHT22;4927;52.472;13.108;2023-07-16T03:54:04;21.00;99.90
9776;DHT22;4927;52.472;13.108;2023-07-16T03:55:06;21.00;99.90
9776;DHT22;4927;52.472;13.108;2023-07-16T03:56:08;21.00;99.90
9776;DHT22;4927;52.472;13.108;2023-07-16T03:57:10;20.90;99.90
9776;DHT22;4927;52.472;13.108;2023-07-16T03:58:12;20.90;99.90
9776;DHT22;4927;52.472;13.108;2023-07-16T03:59:13;20.90;99.90
9776;DHT22;4927;52.472;13.108;2023-07-16T04:00:15;20.90;99.90
9776;DHT22;4927;52.472;13.108;2023-07-16T04:01:17;20.90;99.90
9776;DHT22;4927;52.472;13.108;2023-07-16T04:02:20;20.90;99.90
9776;DHT22;4927;52.472;13.108;2023-07-16T04:03:21;20.90;99.90
9776;DHT22;4927;52.472;13.108;2023-07-16T04:04:23;20.90;99.90
9776;DHT22;4927;52.472;13.108;2023-07-16T04:05:25;20.90;99.90
9776;DHT22;4927;52.472;13.108;2023-07-16T04:06:27;20.90;99.90
9776;DHT22;4927;52.472;13.108;2023-07-16T04:07:29;20.90;99.90
9776;DHT22;4927;52.472;13.108;2023-07-16T04:08:30;20.90;99.90
9776;DHT22;4927;52.472;13.108;2023-07-16T04:09:33;20.90;99.90
9776;DHT22;4927;52.472;13.108;2023-07-16T04:10:35;20.90;99.90
9776;DHT22;4927;52.472;13.108;2023-07-16T04:11:37;20.90;99.90
9776;DHT22;4927;52.472;13.108;2023-07-16T04:12:38;20.90;99.90
9776;DHT22;4927;52.472;13.108;2023-07-16T04:13:40;20.90;99.90
9776;DHT22;4927;52.472;13.108;2023-07-16T04:14:42;20.90;99.90
9776;DHT22;4927;52.472;13.108;2023-07-16T04:15:43;20.90;99.90
9776;DHT22;4927;52.472;13.108;2023-07-16T04:16:46;20.90;99.90
9776;DHT22;4927;52.472;13.108;2023-07-16T04:17:47;20.90;99.90
9776;DHT22;4927;52.472;13.108;2023-07-16T04:18:49;20.80;99.90
9776;DHT22;4927;52.472;13.108;2023-07-16T04:19:51;20.90;99.90
9776;DHT22;4927;52.472;13.108;2023-07-16T04:20:54;20.90;99.90
9776;DHT22;4927;52.472;13.108;2023-07-16T04:21:55;20.80;99.90
9776;DHT22;4927;52.472;13.108;2023-07-16T04:22:57;20.80;99.90
9776;DHT22;4927;52.472;13.108;2023-07-16T04:23:59;20.90;99.90
9776;DHT22;4927;52.472;13.108;2023-07-16T04:25:01;20.90;99.90
9776;DHT22;4927;52.472;13.108;2023-07-16T04:26:03;20.80;99.90
9776;DHT22;4927;52.472;13.108;2023-07-16T04:27:05;20.80;99.90
9776;DHT22;4927;52.472;13.108;2023-07-16T04:28:07;20.80;99.90
9776;DHT22;4927;52.472;13.108;2023-07-16T04:29:09;20.80;99.90
9776;DHT22;4927;52.472;13.108;2023-07-16T04:30:11;20.80;99.90
9776;DHT22;4927;52.472;13.108;2023-07-16T04:31:12;20.80;99.90
9776;DHT22;4927;52.472;13.108;2023-07-16T04:32:14;20.80;99.90
9776;DHT22;4927;52.472;13.108;2023-07-16T04:33:16;20.80;99.90
9776;DHT22;4927;52.472;13.108;2023-07-16T04:34:18;20.80;99.90
9776;DHT22;4927;52.472;13.108;2023-07-16T04:35:19;20.80;99.90
9776;DHT22;4927;52.472;13.108;2023-07-16T04:36:21;20.80;99.90
9776;DHT22;4927;52.472;13.108;2023-07-16T04:37:23;20.80;99.90
9776;DHT22;4927;52.472;13.108;2023-07-16T04:38:24;20.80;99.90
9776;DHT22;4927;52.472;13.108;2023-07-16T04:39:26;20.80;99.90
9776;DHT22;4927;52.472;13.108;2023-07-16T04:40:29;20.80;99.90
9776;DHT22;4927;52.472;13.108;2023-07-16T04:41:30;20.80;99.90
9776;DHT22;4927;52.472;13.108;2023-07-16T04:42:32;20.80;99.90
9776;DHT22;4927;52.472;13.108;2023-07-16T04:43:33;20.80;99.90
9776;DHT22;4927;52.472;13.108;2023-07-16T04:44:35;20.80;99.90
9776;DHT22;4927;52.472;13.108;2023-07-16T04:45:37;20.80;99.90
9776;DHT22;4927;52.472;13.108;2023-07-16T04:46:38;20.80;99.90
9776;DHT22;4927;52.472;13.108;2023-07-16T04:47:41;20.80;99.90
9776;DHT22;4927;52.472;13.108;2023-07-16T04:48:42;20.80;99.90
9776;DHT22;4927;52.472;13.108;2023-07-16T04:49:44;20.80;99.90
9776;DHT22;4927;52.472;13.108;2023-07-16T04:50:46;20.80;99.90
9776;DHT22;4927;52.472;13.108;2023-07-16T04:51:48;20.80;99.90
9776;DHT22;4927;52.472;13.108;2023-07-16T04:52:50;20.80;99.90
9776;DHT22;4927;52.472;13.108;2023-07-16T04:53:52;20.80;99.90
9776;DHT22;4927;52.472;13.108;2023-07-16T04:54:53;20.80;99.90
9776;DHT22;4927;52.472;13.108;2023-07-16T04:55:56;20.90;99.90
9776;DHT22;4927;52.472;13.108;2023-07-16T04:56:57;20.80;99.90
9776;DHT22;4927;52.472;13.108;2023-07-16T04:57:59;20.80;99.90
9776;DHT22;4927;52.472;13.108;2023-07-16T04:59:01;20.80;99.90
9776;DHT22;4927;52.472;13.108;2023-07-16T05:00:03;20.80;99.90
9776;DHT22;4927;52.472;13.108;2023-07-16T05:01:06;20.80;99.90
9776;DHT22;4927;52.472;13.108;2023-07-16T05:02:07;20.80;99.90
9776;DHT22;4927;52.472;13.108;2023-07-16T05:03:09;20.80;99.90
9776;DHT22;4927;52.472;13.108;2023-07-16T05:04:10;20.90;99.90
9776;DHT22;4927;52.472;13.108;2023-07-16T05:05:12;20.80;99.90
9776;DHT22;4927;52.472;13.108;2023-07-16T05:06:14;20.90;99.90
9776;DHT22;4927;52.472;13.108;2023-07-16T05:07:15;20.90;99.90
9776;DHT22;4927;52.472;13.108;2023-07-16T05:08:17;20.90;99.90
9776;DHT22;4927;52.472;13.108;2023-07-16T05:09:20;20.90;99.90
9776;DHT22;4927;52.472;13.108;2023-07-16T05:10:21;20.90;99.90
9776;DHT22;4927;52.472;13.108;2023-07-16T05:11:23;20.80;99.90
9776;DHT22;4927;52.472;13.108;2023-07-16T05:12:25;20.80;99.90
9776;DHT22;4927;52.472;13.108;2023-07-16T05:13:26;20.80;99.90
9776;DHT22;4927;52.472;13.108;2023-07-16T05:14:28;20.80;99.90
9776;DHT22;4927;52.472;13.108;2023-07-16T05:15:31;20.80;99.90
9776;DHT22;4927;52.472;13.108;2023-07-16T05:16:31;20.80;99.90
9776;DHT22;4927;52.472;13.108;2023-07-16T05:17:34;20.90;99.90
9776;DHT22;4927;52.472;13.108;2023-07-16T05:18:36;20.80;99.90
9776;DHT22;4927;52.472;13.108;2023-07-16T05:19:37;20.90;99.90
9776;DHT22;4927;52.472;13.108;2023-07-16T05:20:40;20.90;99.90
9776;DHT22;4927;52.472;13.108;2023-07-16T05:21:41;20.90;99.90
9776;DHT22;4927;52.472;13.108;2023-07-16T05:22:43;20.90;99.90
9776;DHT22;4927;52.472;13.108;2023-07-16T05:23:45;21.00;99.90
9776;DHT22;4927;52.472;13.108;2023-07-16T05:24:47;21.00;99.90
9776;DHT22;4927;52.472;13.108;2023-07-16T05:25:49;21.00;99.90
9776;DHT22;4927;52.472;13.108;2023-07-16T05:26:50;21.00;99.90
9776;DHT22;4927;52.472;13.108;2023-07-16T05:27:52;21.00;99.90
9776;DHT22;4927;52.472;13.108;2023-07-16T05:28:54;21.10;99.90
9776;DHT22;4927;52.472;13.108;2023-07-16T05:29:56;21.10;99.90
9776;DHT22;4927;52.472;13.108;2023-07-16T05:31:01;21.10;99.90
9776;DHT22;4927;52.472;13.108;2023-07-16T05:32:02;21.10;99.90
9776;DHT22;4927;52.472;13.108;2023-07-16T05:33:05;21.10;99.90
9776;DHT22;4927;52.472;13.108;2023-07-16T05:34:06;21.10;99.90
9776;DHT22;4927;52.472;13.108;2023-07-16T05:35:08;21.10;99.90
9776;DHT22;4927;52.472;13.108;2023-07-16T05:36:10;21.10;99.90
9776;DHT22;4927;52.472;13.108;2023-07-16T05:37:12;21.10;99.90
9776;DHT22;4927;52.472;13.108;2023-07-16T05:38:13;21.10;99.90
9776;DHT22;4927;52.472;13.108;2023-07-16T05:39:15;21.10;99.90
9776;DHT22;4927;52.472;13.108;2023-07-16T05:40:17;21.00;99.90
9776;DHT22;4927;52.472;13.108;2023-07-16T05:41:18;21.00;99.90
9776;DHT22;4927;52.472;13.108;2023-07-16T05:42:20;21.00;99.90
9776;DHT22;4927;52.472;13.108;2023-07-16T05:43:22;21.00;99.90
9776;DHT22;4927;52.472;13.108;2023-07-16T05:44:23;21.10;99.90
9776;DHT22;4927;52.472;13.108;2023-07-16T05:45:25;21.10;99.90
9776;DHT22;4927;52.472;13.108;2023-07-16T05:46:27;21.10;99.90
9776;DHT22;4927;52.472;13.108;2023-07-16T05:47:28;21.10;99.90
9776;DHT22;4927;52.472;13.108;2023-07-16T05:48:30;21.10;99.90
9776;DHT22;4927;52.472;13.108;2023-07-16T05:49:32;21.10;99.90
9776;DHT22;4927;52.472;13.108;2023-07-16T05:50:33;21.20;99.90
9776;DHT22;4927;52.472;13.108;2023-07-16T05:51:35;21.20;99.90
9776;DHT22;4927;52.472;13.108;2023-07-16T05:52:37;21.20;99.90
9776;DHT22;4927;52.472;13.108;2023-07-16T05:53:39;21.20;99.90
9776;DHT22;4927;52.472;13.108;2023-07-16T05:54:42;21.20;99.90
9776;DHT22;4927;52.472;13.108;2023-07-16T05:55:43;21.20;99.90
9776;DHT22;4927;52.472;13.108;2023-07-16T05:56:44;21.20;99.90
9776;DHT22;4927;52.472;13.108;2023-07-16T05:57:46;21.20;99.90
9776;DHT22;4927;52.472;13.108;2023-07-16T05:58:48;21.20;99.90
9776;DHT22;4927;52.472;13.108;2023-07-16T05:59:49;21.30;99.90
9776;DHT22;4927;52.472;13.108;2023-07-16T06:00:51;21.30;99.90
9776;DHT22;4927;52.472;13.108;2023-07-16T06:01:53;21.30;99.90
9776;DHT22;4927;52.472;13.108;2023-07-16T06:02:54;21.30;99.90
9776;DHT22;4927;52.472;13.108;2023-07-16T06:03:57;21.40;99.90
9776;DHT22;4927;52.472;13.108;2023-07-16T06:04:59;21.30;99.90
9776;DHT22;4927;52.472;13.108;2023-07-16T06:06:00;21.40;99.90
9776;DHT22;4927;52.472;13.108;2023-07-16T06:07:02;21.40;99.90
9776;DHT22;4927;52.472;13.108;2023-07-16T06:08:04;21.40;99.90
9776;DHT22;4927;52.472;13.108;2023-07-16T06:09:06;21.40;99.90
9776;DHT22;4927;52.472;13.108;2023-07-16T06:10:08;21.40;99.90
9776;DHT22;4927;52.472;13.108;2023-07-16T06:11:10;21.40;99.90
9776;DHT22;4927;52.472;13.108;2023-07-16T06:12:12;21.40;99.90
9776;DHT22;4927;52.472;13.108;2023-07-16T06:13:14;21.50;99.90
9776;DHT22;4927;52.472;13.108;2023-07-16T06:14:16;21.50;99.90
9776;DHT22;4927;52.472;13.108;2023-07-16T06:15:17;21.50;99.90
9776;DHT22;4927;52.472;13.108;2023-07-16T06:16:19;21.50;99.90
9776;DHT22;4927;52.472;13.108;2023-07-16T06:17:21;21.50;99.90
9776;DHT22;4927;52.472;13.108;2023-07-16T06:18:22;21.60;99.90
9776;DHT22;4927;52.472;13.108;2023-07-16T06:19:24;21.60;99.90
9776;DHT22;4927;52.472;13.108;2023-07-16T06:20:26;21.60;99.90
9776;DHT22;4927;52.472;13.108;2023-07-16T06:21:27;21.60;99.90
9776;DHT22;4927;52.472;13.108;2023-07-16T06:22:30;21.60;99.90
9776;DHT22;4927;52.472;13.108;2023-07-16T06:23:32;21.60;99.90
9776;DHT22;4927;52.472;13.108;2023-07-16T06:24:34;21.60;99.90
9776;DHT22;4927;52.472;13.108;2023-07-16T06:25:36;21.70;99.90
9776;DHT22;4927;52.472;13.108;2023-07-16T06:26:39;21.70;99.90
9776;DHT22;4927;52.472;13.108;2023-07-16T06:27:41;21.70;99.90
9776;DHT22;4927;52.472;13.108;2023-07-16T06:28:43;21.70;99.90
9776;DHT22;4927;52.472;13.108;2023-07-16T06:29:45;21.70;99.90
9776;DHT22;4927;52.472;13.108;2023-07-16T06:30:46;21.80;99.90
9776;DHT22;4927;52.472;13.108;2023-07-16T06:31:55;21.80;99.90
9776;DHT22;4927;52.472;13.108;2023-07-16T06:32:57;21.80;99.90
9776;DHT22;4927;52.472;13.108;2023-07-16T06:33:58;21.80;99.90
9776;DHT22;4927;52.472;13.108;2023-07-16T06:35:00;21.90;99.90
9776;DHT22;4927;52.472;13.108;2023-07-16T06:36:02;21.90;99.90
9776;DHT22;4927;52.472;13.108;2023-07-16T06:37:05;22.00;99.90
9776;DHT22;4927;52.472;13.108;2023-07-16T06:38:06;21.90;99.90
9776;DHT22;4927;52.472;13.108;2023-07-16T06:39:08;21.90;99.90
9776;DHT22;4927;52.472;13.108;2023-07-16T06:40:10;22.00;99.90
9776;DHT22;4927;52.472;13.108;2023-07-16T06:41:12;22.00;99.90